Time;durP1;ratioP1;P1;durP2;ratioP2;P2;SDS_P1;SDS_P2;PMS_P1;PMS_P2;Temp;Humidity;BMP_temperature;BMP_pressure;BME280_temperature;BME280_humidity;BME280_pressure;Samples;Min_cycle;Max_cycle;Signal;HPM_P1;HPM_P2
2023/03/19 00:01:53;;;;;;;;;;;;;;;10.65;78.88;98478.81;5066992;28;19970;-81
2023/03/19 00:04:19;;;;;;;;;;;;;;;10.72;79.31;98474.06;5068211;28;20360;-81
2023/03/19 00:06:44;;;;;;;;;;;;;;;10.56;79.53;98475.81;5070232;28;19947;-82
2023/03/19 00:09:10;;;;;;;;;;;;;;;10.65;79.25;98470.81;5064377;28;20399;-81
2023/03/19 00:11:35;;;;;;;;;;;;;;;10.51;79.54;98473.13;5067695;28;19935;-82
2023/03/19 00:14:00;;;;;;;;;;;;;;;10.46;79.70;98468.53;5071412;28;19921;-81
2023/03/19 00:16:26;;;;;;;;;;;;;;;10.47;80.14;98467.50;5064926;28;19974;-81
2023/03/19 00:18:51;;;;;;;;;;;;;;;10.55;78.98;98469.69;5068102;28;20486;-81
2023/03/19 00:21:16;;;;;;;;;;;;;;;10.60;78.71;98471.59;5068955;28;19920;-82
2023/03/19 00:23:41;;;;;;;;;;;;;;;10.62;78.50;98471.31;5074347;28;20303;-82
2023/03/19 00:26:07;;;;;;;;;;;;;;;10.23;81.66;98470.78;5073726;28;20460;-81
2023/03/19 00:28:33;;;;;;;;;;;;;;;10.46;79.15;98467.78;5070492;28;19917;-80
2023/03/19 00:31:05;;;;;;;;;;;;;;;10.55;79.40;98475.03;5066572;28;20412;-81
2023/03/19 00:33:31;;;;;;;;;;;;;;;10.50;79.35;98477.69;5067227;28;19928;-81
2023/03/19 00:35:57;;;;;;;;;;;;;;;10.51;79.36;98479.25;5053525;28;19920;-81
2023/03/19 00:38:23;;;;;;;;;;;;;;;10.46;79.07;98479.22;5073225;28;19928;-81
2023/03/19 00:40:51;;;;;;;;;;;;;;;10.24;80.50;98470.50;5076875;28;19920;-81
2023/03/19 00:43:16;;;;;;;;;;;;;;;9.65;85.96;98472.38;5068913;28;19931;-81
2023/03/19 00:45:41;;;;;;;;;;;;;;;9.54;87.04;98461.88;5073240;28;20011;-81
2023/03/19 00:48:07;;;;;;;;;;;;;;;9.54;87.31;98459.22;5070168;28;20355;-81
2023/03/19 00:50:32;;;;;;;;;;;;;;;9.87;83.24;98469.66;5064340;28;19964;-81
2023/03/19 00:52:57;;;;;;;;;;;;;;;10.20;81.06;98474.75;5050601;28;19927;-83
2023/03/19 00:55:24;;;;;;;;;;;;;;;9.94;83.76;98477.47;5048127;28;19925;-81
2023/03/19 00:57:50;;;;;;;;;;;;;;;10.19;80.66;98475.03;5070165;28;20309;-81
2023/03/19 01:00:16;;;;;;;;;;;;;;;10.38;79.66;98484.22;5068659;28;19976;-81
2023/03/19 01:02:41;;;;;;;;;;;;;;;10.40;79.34;98482.09;5077214;28;19963;-81
2023/03/19 01:05:07;;;;;;;;;;;;;;;10.35;79.48;98484.75;5066846;28;19928;-80
2023/03/19 01:07:33;;;;;;;;;;;;;;;10.23;80.26;98492.94;5069692;28;20292;-81
2023/03/19 01:09:58;;;;;;;;;;;;;;;10.25;79.63;98490.81;5057100;28;19920;-81
2023/03/19 01:12:23;;;;;;;;;;;;;;;10.30;79.71;98488.19;5072939;28;20011;-81
2023/03/19 01:14:48;;;;;;;;;;;;;;;10.32;79.80;98488.75;5072788;28;19924;-82
2023/03/19 01:17:14;;;;;;;;;;;;;;;10.29;79.13;98481.22;5071850;28;19920;-83
2023/03/19 01:19:39;;;;;;;;;;;;;;;10.34;79.59;98489.28;5057768;28;19933;-82
2023/03/19 01:22:04;;;;;;;;;;;;;;;10.30;79.45;98477.53;5074323;28;19924;-82
2023/03/19 01:24:30;;;;;;;;;;;;;;;10.33;79.16;98482.31;5054296;28;20029;-82
2023/03/19 01:26:56;;;;;;;;;;;;;;;10.33;79.40;98478.88;5076708;28;19917;-82
2023/03/19 01:29:21;;;;;;;;;;;;;;;10.24;79.13;98483.06;5077989;28;19927;-82
2023/03/19 01:31:46;;;;;;;;;;;;;;;10.27;79.59;98488.69;5074670;28;19917;-81
2023/03/19 01:34:11;;;;;;;;;;;;;;;10.29;79.45;98483.91;5071362;28;19921;-82
2023/03/19 01:36:37;;;;;;;;;;;;;;;10.13;80.31;98490.19;5070950;28;20071;-82
2023/03/19 01:39:03;;;;;;;;;;;;;;;9.91;83.19;98497.41;5072531;28;20479;-80
2023/03/19 01:41:28;;;;;;;;;;;;;;;9.47;86.65;98495.88;5067941;28;19936;-81
2023/03/19 01:43:53;;;;;;;;;;;;;;;9.13;87.56;98489.09;5057630;28;19927;-81
2023/03/19 01:46:33;;;;;;;;;;;;;;;9.09;89.23;98495.97;5056044;28;19924;-81
2023/03/19 01:49:04;;;;;;;;;;;;;;;9.23;88.56;98486.56;5071940;28;20011;-81
2023/03/19 01:51:33;;;;;;;;;;;;;;;9.76;82.89;98494.63;5074603;28;20007;-81
2023/03/19 01:54:00;;;;;;;;;;;;;;;9.66;84.66;98483.84;5075487;28;20280;-81
2023/03/19 01:56:28;;;;;;;;;;;;;;;10.08;81.02;98491.97;5075651;28;19920;-83
2023/03/19 01:58:56;;;;;;;;;;;;;;;10.20;80.12;98480.09;5072484;28;19960;-81
2023/03/19 02:01:21;;;;;;;;;;;;;;;10.18;79.82;98487.53;5075999;28;20348;-82
2023/03/19 02:03:48;;;;;;;;;;;;;;;10.23;79.44;98487.59;5069113;28;19920;-81
2023/03/19 02:06:14;;;;;;;;;;;;;;;10.17;79.96;98488.63;5071038;28;19921;-82
2023/03/19 02:08:40;;;;;;;;;;;;;;;10.14;80.46;98481.13;5058335;28;20304;-82
2023/03/19 02:11:05;;;;;;;;;;;;;;;10.14;79.96;98478.44;5072024;28;19916;-82
2023/03/19 02:13:31;;;;;;;;;;;;;;;10.11;80.36;98478.94;5053611;28;20676;-82
2023/03/19 02:15:57;;;;;;;;;;;;;;;10.07;80.17;98483.16;5069843;28;20342;-82
2023/03/19 02:18:24;;;;;;;;;;;;;;;10.11;80.57;98489.63;5070705;28;20350;-81
2023/03/19 02:21:06;;;;;;;;;;;;;;;9.86;82.21;98480.56;5067923;28;20003;-82
2023/03/19 02:23:34;;;;;;;;;;;;;;;9.80;82.40;98485.06;5068430;28;20027;-81
2023/03/19 02:26:02;;;;;;;;;;;;;;;9.92;81.31;98491.00;5070869;28;20287;-82
2023/03/19 02:28:29;;;;;;;;;;;;;;;10.05;80.41;98484.47;5074203;28;19916;-82
2023/03/19 02:30:54;;;;;;;;;;;;;;;10.08;80.58;98481.28;5068849;28;19921;-82
2023/03/19 02:33:20;;;;;;;;;;;;;;;9.87;80.99;98488.31;5072415;28;20283;-82
2023/03/19 02:35:47;;;;;;;;;;;;;;;9.96;80.54;98481.44;5067664;28;19916;-82
2023/03/19 02:38:14;;;;;;;;;;;;;;;10.03;80.68;98490.06;5068452;28;20390;-82
2023/03/19 02:40:46;;;;;;;;;;;;;;;10.01;80.42;98481.50;5067736;28;19925;-81
2023/03/19 02:43:12;;;;;;;;;;;;;;;10.01;80.53;98491.34;5072456;28;19921;-82
2023/03/19 02:45:38;;;;;;;;;;;;;;;9.86;80.92;98489.38;5071789;28;19920;-82
2023/03/19 02:48:03;;;;;;;;;;;;;;;9.15;86.77;98484.34;5073632;28;20280;-82
2023/03/19 02:50:28;;;;;;;;;;;;;;;9.20;86.97;98481.72;5073262;28;19934;-81
2023/03/19 02:52:54;;;;;;;;;;;;;;;9.04;87.65;98484.19;5055732;28;19920;-81
2023/03/19 02:55:20;;;;;;;;;;;;;;;9.34;85.17;98480.28;5073089;28;19946;-82
2023/03/19 02:57:45;;;;;;;;;;;;;;;9.83;82.16;98487.19;5067554;28;19960;-82
2023/03/19 03:00:11;;;;;;;;;;;;;;;9.53;83.96;98470.91;5064890;28;19928;-82
2023/03/19 03:02:37;;;;;;;;;;;;;;;9.86;81.67;98473.38;5071651;28;19916;-82
2023/03/19 03:05:02;;;;;;;;;;;;;;;9.63;82.70;98473.69;5064871;28;20236;-80
2023/03/19 03:07:28;;;;;;;;;;;;;;;9.82;81.35;98477.59;5068070;28;20015;-82
2023/03/19 03:09:53;;;;;;;;;;;;;;;9.83;81.25;98477.34;5072179;28;19939;-82
2023/03/19 03:12:18;;;;;;;;;;;;;;;9.95;80.98;98482.53;5071555;28;20279;-82
2023/03/19 03:14:44;;;;;;;;;;;;;;;10.02;80.74;98479.66;5074131;28;20007;-82
2023/03/19 03:17:09;;;;;;;;;;;;;;;9.98;80.31;98478.56;5070208;28;19931;-82
2023/03/19 03:19:35;;;;;;;;;;;;;;;9.99;80.41;98480.16;5054844;28;20376;-81
2023/03/19 03:22:00;;;;;;;;;;;;;;;9.95;80.51;98479.84;5068031;28;19920;-81
2023/03/19 03:24:26;;;;;;;;;;;;;;;10.01;80.71;98494.84;5070291;28;19924;-81
2023/03/19 03:26:51;;;;;;;;;;;;;;;9.97;80.89;98484.94;5054255;28;20015;-82
2023/03/19 03:29:17;;;;;;;;;;;;;;;9.88;80.75;98489.09;5054082;28;19967;-80
2023/03/19 03:31:42;;;;;;;;;;;;;;;9.96;80.39;98489.44;5071819;28;19973;-81
2023/03/19 03:34:07;;;;;;;;;;;;;;;9.94;80.84;98485.47;5071552;28;19938;-80
2023/03/19 03:36:32;;;;;;;;;;;;;;;9.58;82.50;98490.44;5068319;28;19920;-81
2023/03/19 03:38:58;;;;;;;;;;;;;;;9.47;83.47;98485.22;5070510;28;19925;-81
2023/03/19 03:41:23;;;;;;;;;;;;;;;9.78;81.31;98481.84;5068658;28;19928;-80
2023/03/19 03:43:49;;;;;;;;;;;;;;;9.86;81.14;98485.88;5053654;28;19925;-81
2023/03/19 03:46:14;;;;;;;;;;;;;;;9.83;80.54;98487.19;5067011;28;19925;-81
2023/03/19 03:48:39;;;;;;;;;;;;;;;9.77;80.87;98493.53;5053668;28;19924;-81
2023/03/19 03:51:04;;;;;;;;;;;;;;;9.67;81.71;98490.78;5068079;28;19917;-81
2023/03/19 03:53:30;;;;;;;;;;;;;;;9.62;81.97;98491.53;5070510;28;19923;-80
2023/03/19 03:55:55;;;;;;;;;;;;;;;9.66;81.04;98497.16;5070992;28;19924;-81
2023/03/19 03:58:21;;;;;;;;;;;;;;;9.68;81.47;98495.84;5069857;28;19921;-81
2023/03/19 04:00:46;;;;;;;;;;;;;;;9.63;81.17;98497.69;5071998;28;21448;-81
2023/03/19 04:03:12;;;;;;;;;;;;;;;9.69;81.75;98496.66;5068112;28;19920;-81
2023/03/19 04:05:37;;;;;;;;;;;;;;;9.58;81.67;98500.28;5070946;28;19920;-81
2023/03/19 04:08:03;;;;;;;;;;;;;;;9.18;83.47;98505.94;5071120;28;19978;-82
2023/03/19 04:10:30;;;;;;;;;;;;;;;9.38;82.63;98502.72;5072921;28;19920;-81
2023/03/19 04:12:55;;;;;;;;;;;;;;;9.22;84.19;98509.72;5066839;28;19939;-80
2023/03/19 04:15:21;;;;;;;;;;;;;;;9.63;81.52;98508.34;5066220;28;19917;-81
2023/03/19 04:17:46;;;;;;;;;;;;;;;9.73;81.06;98492.44;5065815;28;19920;-81
2023/03/19 04:20:12;;;;;;;;;;;;;;;9.67;80.70;98493.44;5068303;28;19924;-82
2023/03/19 04:22:37;;;;;;;;;;;;;;;9.64;80.53;98497.41;5071583;28;20021;-82
2023/03/19 04:25:03;;;;;;;;;;;;;;;9.72;81.05;98502.28;5053292;28;19927;-81
2023/03/19 04:27:29;;;;;;;;;;;;;;;9.70;81.03;98501.75;5066395;28;19942;-80
2023/03/19 04:29:54;;;;;;;;;;;;;;;9.74;80.46;98499.41;5064244;28;20027;-82
2023/03/19 04:32:19;;;;;;;;;;;;;;;9.70;80.46;98485.75;5070009;28;20284;-81
2023/03/19 04:34:45;;;;;;;;;;;;;;;9.71;80.95;98497.22;5068772;28;19925;-81
2023/03/19 04:37:11;;;;;;;;;;;;;;;9.71;80.38;98494.56;5064475;28;19917;-82
2023/03/19 04:39:37;;;;;;;;;;;;;;;9.73;81.05;98489.78;5065995;28;20367;-81
2023/03/19 04:42:03;;;;;;;;;;;;;;;9.67;81.00;98504.09;5066501;28;19920;-82
2023/03/19 04:44:29;;;;;;;;;;;;;;;9.63;80.83;98503.00;5063931;28;19947;-81
2023/03/19 04:46:55;;;;;;;;;;;;;;;9.66;81.56;98505.97;5063590;28;19920;-81
2023/03/19 04:49:20;;;;;;;;;;;;;;;9.66;81.01;98507.81;5071587;28;19928;-81
2023/03/19 04:51:45;;;;;;;;;;;;;;;9.61;81.20;98507.78;5050716;28;20008;-81
2023/03/19 04:54:11;;;;;;;;;;;;;;;9.67;80.87;98509.44;5054195;28;19939;-80
2023/03/19 04:56:36;;;;;;;;;;;;;;;9.62;81.23;98515.50;5066161;28;20379;-82
2023/03/19 04:59:01;;;;;;;;;;;;;;;9.55;81.59;98516.75;5068496;28;19928;-82
2023/03/19 05:01:26;;;;;;;;;;;;;;;9.52;81.81;98517.28;5073281;28;20380;-82
2023/03/19 05:03:52;;;;;;;;;;;;;;;9.48;81.90;98500.97;5076557;28;19924;-82
2023/03/19 05:06:18;;;;;;;;;;;;;;;9.39;82.51;98509.66;5053019;28;20281;-83
2023/03/19 05:08:44;;;;;;;;;;;;;;;8.75;87.25;98508.56;5060722;28;19920;-82
2023/03/19 05:11:10;;;;;;;;;;;;;;;8.47;89.10;98514.81;5073594;28;19925;-82
2023/03/19 05:13:35;;;;;;;;;;;;;;;8.58;89.85;98518.41;5056939;28;19931;-82
2023/03/19 05:16:00;;;;;;;;;;;;;;;8.75;87.12;98512.03;5074365;28;19920;-81
2023/03/19 05:18:26;;;;;;;;;;;;;;;8.25;90.93;98513.88;5076435;28;19928;-81
2023/03/19 05:20:52;;;;;;;;;;;;;;;8.81;87.15;98510.22;5074661;28;19971;-82
2023/03/19 05:23:17;;;;;;;;;;;;;;;9.30;83.52;98525.28;5075890;28;19973;-81
2023/03/19 05:25:42;;;;;;;;;;;;;;;9.31;83.88;98521.53;5063931;28;20184;-81
2023/03/19 05:28:08;;;;;;;;;;;;;;;9.49;82.48;98523.09;5074738;28;19932;-80
2023/03/19 05:30:33;;;;;;;;;;;;;;;9.35;82.39;98532.53;5076233;28;19971;-80
2023/03/19 05:33:01;;;;;;;;;;;;;;;9.49;82.15;98523.09;5073544;28;20073;-80
2023/03/19 05:35:28;;;;;;;;;;;;;;;9.31;83.30;98521.53;5073842;28;20342;-81
2023/03/19 05:37:53;;;;;;;;;;;;;;;9.13;85.12;98515.72;5061851;28;21036;-82
2023/03/19 05:40:18;;;;;;;;;;;;;;;9.46;82.22;98518.25;5072926;28;19963;-81
2023/03/19 05:42:44;;;;;;;;;;;;;;;9.58;82.00;98526.91;5072189;28;19931;-82
2023/03/19 05:45:10;;;;;;;;;;;;;;;9.55;81.96;98527.41;5066563;28;19968;-82
2023/03/19 05:47:35;;;;;;;;;;;;;;;9.49;82.37;98528.41;5074604;28;19916;-82
2023/03/19 05:50:00;;;;;;;;;;;;;;;9.43;82.64;98524.09;5059132;28;20285;-82
2023/03/19 05:52:25;;;;;;;;;;;;;;;8.70;88.43;98533.22;5052243;28;19920;-81
2023/03/19 05:54:51;;;;;;;;;;;;;;;8.93;87.03;98538.34;5057216;28;20376;-82
2023/03/19 05:57:16;;;;;;;;;;;;;;;9.11;84.95;98541.78;5071430;28;19979;-81
2023/03/19 05:59:41;;;;;;;;;;;;;;;9.18;84.69;98545.88;5077415;28;19927;-82
2023/03/19 06:02:06;;;;;;;;;;;;;;;9.01;86.49;98545.13;5070393;28;19952;-81
2023/03/19 06:04:32;;;;;;;;;;;;;;;8.95;85.99;98552.22;5068615;28;19920;-81
2023/03/19 06:06:57;;;;;;;;;;;;;;;8.45;89.95;98559.44;5069763;28;19923;-82
2023/03/19 06:09:23;;;;;;;;;;;;;;;8.58;89.73;98558.31;5071573;28;19928;-82
2023/03/19 06:11:48;;;;;;;;;;;;;;;8.92;85.90;98566.03;5071224;28;20882;-82
2023/03/19 06:14:14;;;;;;;;;;;;;;;8.79;87.65;98568.22;5073394;28;19916;-82
2023/03/19 06:16:39;;;;;;;;;;;;;;;8.61;89.36;98573.78;5067196;28;19925;-82
2023/03/19 06:19:04;;;;;;;;;;;;;;;8.65;89.48;98580.25;5071021;28;20277;-82
2023/03/19 06:21:30;;;;;;;;;;;;;;;8.61;90.58;98581.75;5069716;28;19961;-82
2023/03/19 06:23:56;;;;;;;;;;;;;;;8.81;87.94;98588.22;5068987;28;20021;-82
2023/03/19 06:26:21;;;;;;;;;;;;;;;9.28;84.12;98593.16;5063418;28;19990;-82
2023/03/19 06:28:47;;;;;;;;;;;;;;;9.41;83.06;98590.13;5069391;28;20411;-82
2023/03/19 06:31:12;;;;;;;;;;;;;;;9.32;83.72;98594.25;5066868;28;19921;-82
2023/03/19 06:33:37;;;;;;;;;;;;;;;8.79;89.05;98592.97;5067428;28;19925;-83
2023/03/19 06:36:03;;;;;;;;;;;;;;;8.86;88.16;98598.94;5070889;28;19985;-81
2023/03/19 06:38:28;;;;;;;;;;;;;;;9.29;84.23;98611.53;5055517;28;19970;-82
2023/03/19 06:40:53;;;;;;;;;;;;;;;9.15;85.65;98606.81;5051352;28;21171;-82
2023/03/19 06:43:18;;;;;;;;;;;;;;;8.81;90.04;98603.38;5069010;28;19927;-82
2023/03/19 06:45:44;;;;;;;;;;;;;;;9.07;86.72;98608.84;5067649;28;20028;-82
2023/03/19 06:48:09;;;;;;;;;;;;;;;9.35;83.82;98607.09;5055045;28;19925;-82
2023/03/19 06:50:34;;;;;;;;;;;;;;;9.43;82.84;98601.34;5072307;28;19931;-82
2023/03/19 06:53:01;;;;;;;;;;;;;;;8.93;88.92;98604.88;5070931;28;19924;-82
2023/03/19 06:55:26;;;;;;;;;;;;;;;8.58;92.91;98607.00;5047442;28;19921;-82
2023/03/19 06:57:51;;;;;;;;;;;;;;;8.30;95.01;98591.09;5069532;28;19996;-82
2023/03/19 07:00:17;;;;;;;;;;;;;;;8.05;96.51;98575.47;5070245;28;19931;-81
2023/03/19 07:02:42;;;;;;;;;;;;;;;8.88;88.22;98574.75;5071642;28;19921;-81
2023/03/19 07:05:08;;;;;;;;;;;;;;;9.12;85.89;98583.31;5068994;28;19921;-82
2023/03/19 07:07:33;;;;;;;;;;;;;;;9.02;87.39;98592.78;5072054;28;19920;-81
2023/03/19 07:09:58;;;;;;;;;;;;;;;9.25;84.29;98589.09;5074275;28;20011;-82
2023/03/19 07:12:26;;;;;;;;;;;;;;;9.39;83.83;98602.88;5070565;28;19917;-82
2023/03/19 07:14:52;;;;;;;;;;;;;;;9.19;86.54;98600.75;5074335;28;20334;-83
2023/03/19 07:17:17;;;;;;;;;;;;;;;9.26;85.92;98605.91;5072013;28;20062;-82
2023/03/19 07:19:42;;;;;;;;;;;;;;;9.49;83.53;98605.66;5079085;28;19926;-82
2023/03/19 07:22:07;;;;;;;;;;;;;;;9.54;83.20;98613.72;5058720;28;19924;-82
2023/03/19 07:24:33;;;;;;;;;;;;;;;9.53;82.89;98606.78;5056099;28;19920;-82
2023/03/19 07:27:01;;;;;;;;;;;;;;;9.65;82.45;98624.25;5071011;28;19928;-82
2023/03/19 07:29:27;;;;;;;;;;;;;;;9.59;83.21;98622.56;5075651;28;19963;-82
2023/03/19 07:31:52;;;;;;;;;;;;;;;9.65;83.30;98628.78;5072795;28;19924;-82
2023/03/19 07:34:17;;;;;;;;;;;;;;;9.63;83.58;98629.03;5045523;28;20297;-82
2023/03/19 07:36:43;;;;;;;;;;;;;;;9.70;81.99;98629.66;5070894;28;20249;-81
2023/03/19 07:39:08;;;;;;;;;;;;;;;9.73;82.40;98623.03;5062288;28;19932;-81
2023/03/19 07:41:34;;;;;;;;;;;;;;;9.80;82.13;98626.31;5071515;28;20423;-82
2023/03/19 07:43:59;;;;;;;;;;;;;;;9.80;82.22;98631.66;5069377;28;19959;-82
2023/03/19 07:46:25;;;;;;;;;;;;;;;9.82;82.37;98633.00;5069830;28;19920;-82
2023/03/19 07:48:50;;;;;;;;;;;;;;;9.76;83.22;98626.00;5065148;28;19917;-82
2023/03/19 07:51:15;;;;;;;;;;;;;;;9.77;82.54;98635.59;5066468;28;19923;-82
2023/03/19 07:53:41;;;;;;;;;;;;;;;9.75;87.55;98624.41;5068366;28;19920;-82
2023/03/19 07:56:06;;;;;;;;;;;;;;;9.87;82.86;98632.28;5048332;28;19925;-82
2023/03/19 07:58:31;;;;;;;;;;;;;;;9.84;85.10;98632.75;5067062;28;19916;-81
2023/03/19 08:00:57;;;;;;;;;;;;;;;9.86;87.06;98619.97;5062975;28;19923;-82
2023/03/19 08:03:22;;;;;;;;;;;;;;;9.96;85.29;98632.63;5067880;28;19956;-81
2023/03/19 08:05:48;;;;;;;;;;;;;;;10.01;83.71;98628.16;5070255;28;19924;-82
2023/03/19 08:08:14;;;;;;;;;;;;;;;10.09;81.52;98634.91;5066667;28;20029;-82
2023/03/19 08:10:39;;;;;;;;;;;;;;;10.12;83.19;98635.25;5052439;28;19943;-82
2023/03/19 08:13:04;;;;;;;;;;;;;;;10.23;81.18;98634.28;5049817;28;19988;-82
2023/03/19 08:15:30;;;;;;;;;;;;;;;10.29;81.05;98638.63;5071006;28;19946;-82
2023/03/19 08:17:59;;;;;;;;;;;;;;;10.29;86.23;98635.13;5068522;28;19928;-82
2023/03/19 08:20:24;;;;;;;;;;;;;;;10.26;84.65;98635.66;5069630;28;19935;-82
2023/03/19 08:22:50;;;;;;;;;;;;;;;10.28;83.29;98634.34;5054068;28;19924;-82
2023/03/19 08:25:15;;;;;;;;;;;;;;;10.42;82.53;98632.06;5065708;28;19916;-82
2023/03/19 08:27:41;;;;;;;;;;;;;;;10.42;85.56;98638.22;5066603;28;19924;-82
2023/03/19 08:30:07;;;;;;;;;;;;;;;10.35;92.12;98642.94;5068701;28;19943;-82
2023/03/19 08:32:33;;;;;;;;;;;;;;;10.39;86.15;98641.41;5068145;28;19923;-82
2023/03/19 08:34:58;;;;;;;;;;;;;;;10.36;93.01;98636.56;5062835;28;19932;-82
2023/03/19 08:37:24;;;;;;;;;;;;;;;10.50;84.22;98629.78;5066044;28;19920;-79
2023/03/19 08:39:51;;;;;;;;;;;;;;;10.53;88.74;98642.59;5072360;28;19932;-79
2023/03/19 08:42:16;;;;;;;;;;;;;;;10.59;88.90;98643.47;5073360;28;19920;-80
2023/03/19 08:44:41;;;;;;;;;;;;;;;10.64;89.72;98637.38;5071154;28;19921;-79
2023/03/19 08:47:07;;;;;;;;;;;;;;;10.55;90.79;98645.00;5067845;28;19935;-80
2023/03/19 08:49:32;;;;;;;;;;;;;;;10.56;89.28;98643.94;5074044;28;19920;-79
2023/03/19 08:51:57;;;;;;;;;;;;;;;10.77;84.31;98642.28;5073271;28;19930;-80
2023/03/19 08:54:22;;;;;;;;;;;;;;;10.70;87.94;98644.34;5072519;28;19924;-80
2023/03/19 08:56:48;;;;;;;;;;;;;;;10.70;88.06;98639.00;5069494;28;19928;-79
2023/03/19 08:59:13;;;;;;;;;;;;;;;10.64;89.15;98643.47;5066381;28;19932;-80
2023/03/19 09:01:38;;;;;;;;;;;;;;;10.78;84.72;98636.69;5071527;28;19947;-80
2023/03/19 09:04:03;;;;;;;;;;;;;;;10.77;86.08;98637.72;5069459;28;19927;-80
2023/03/19 09:06:29;;;;;;;;;;;;;;;10.95;82.42;98637.34;5070086;28;19920;-80
2023/03/19 09:08:54;;;;;;;;;;;;;;;10.73;85.12;98636.63;5072080;28;19916;-79
2023/03/19 09:11:20;;;;;;;;;;;;;;;10.69;87.06;98632.03;5070364;28;19927;-79
2023/03/19 09:13:45;;;;;;;;;;;;;;;10.68;87.02;98643.78;5070799;28;19931;-81
2023/03/19 09:16:10;;;;;;;;;;;;;;;10.64;85.92;98640.81;5069535;28;19987;-81
2023/03/19 09:18:35;;;;;;;;;;;;;;;10.84;83.09;98642.84;5088185;28;19929;-82
2023/03/19 09:21:01;;;;;;;;;;;;;;;10.89;83.39;98642.91;5073544;28;19924;-82
2023/03/19 09:23:26;;;;;;;;;;;;;;;11.04;81.83;98641.16;5073593;28;19944;-82
2023/03/19 09:25:52;;;;;;;;;;;;;;;11.06;81.60;98639.03;5053110;28;19920;-83
2023/03/19 09:28:18;;;;;;;;;;;;;;;11.04;81.81;98648.34;5071116;28;19924;-81
2023/03/19 09:30:47;;;;;;;;;;;;;;;10.99;82.78;98643.78;5076259;28;20398;-81
2023/03/19 09:33:12;;;;;;;;;;;;;;;11.09;82.73;98651.88;5076725;28;19921;-80
2023/03/19 09:35:38;;;;;;;;;;;;;;;11.13;81.80;98644.16;5071402;28;19939;-78
2023/03/19 09:38:04;;;;;;;;;;;;;;;11.17;82.33;98645.25;5070334;28;20312;-81
2023/03/19 09:40:42;;;;;;;;;;;;;;;11.00;85.13;98649.94;5070010;28;19960;-80
2023/03/19 09:43:11;;;;;;;;;;;;;;;11.19;82.38;98643.13;5066207;28;20027;-79
2023/03/19 09:45:36;;;;;;;;;;;;;;;11.22;83.51;98650.63;5069375;28;19917;-79
2023/03/19 09:48:05;;;;;;;;;;;;;;;11.38;81.33;98644.28;5071188;28;19938;-79
2023/03/19 09:50:33;;;;;;;;;;;;;;;11.36;82.90;98641.09;5068361;28;20006;-78
2023/03/19 09:53:01;;;;;;;;;;;;;;;11.48;81.58;98644.38;5067738;28;19923;-79
2023/03/19 09:55:32;;;;;;;;;;;;;;;11.47;83.07;98648.09;5068670;28;19917;-80
2023/03/19 09:57:59;;;;;;;;;;;;;;;11.39;85.10;98651.25;5070432;28;20287;-81
2023/03/19 10:00:27;;;;;;;;;;;;;;;11.48;84.98;98652.41;5054651;28;19933;-79
2023/03/19 10:03:11;;;;;;;;;;;;;;;11.56;84.49;98648.41;5070517;28;20288;-80
2023/03/19 10:05:40;;;;;;;;;;;;;;;11.38;84.77;98652.31;5072321;28;20276;-80
2023/03/19 10:08:30;;;;;;;;;;;;;;;11.53;84.76;98648.94;5069616;28;19916;-80
2023/03/19 10:11:08;;;;;;;;;;;;;;;11.57;84.87;98650.84;5067217;28;19925;-81
2023/03/19 10:13:52;;;;;;;;;;;;;;;11.68;84.56;98649.88;5084262;28;19974;-81
2023/03/19 10:16:20;;;;;;;;;;;;;;;11.76;83.43;98645.88;5069318;28;19925;-80
2023/03/19 10:18:50;;;;;;;;;;;;;;;11.87;82.87;98653.69;5076268;28;19955;-80
2023/03/19 10:21:20;;;;;;;;;;;;;;;11.98;82.45;98654.53;5074035;28;19929;-79
2023/03/19 10:23:45;;;;;;;;;;;;;;;11.86;82.64;98657.41;5069427;28;19979;-79
2023/03/19 10:26:18;;;;;;;;;;;;;;;11.92;82.31;98659.06;5062815;28;20007;-79
2023/03/19 10:28:46;;;;;;;;;;;;;;;11.93;81.61;98659.84;5067583;28;20564;-79
2023/03/19 10:31:46;;;;;;;;;;;;;;;11.95;81.09;98661.19;5048462;28;19921;-79
2023/03/19 10:34:41;;;;;;;;;;;;;;;12.11;80.59;98654.03;5025882;28;19921;-80
2023/03/19 10:37:15;;;;;;;;;;;;;;;12.12;80.61;98650.31;5045050;28;19927;-80
2023/03/19 10:39:44;;;;;;;;;;;;;;;12.12;80.21;98649.50;5067301;28;20521;-80
2023/03/19 10:42:32;;;;;;;;;;;;;;;12.35;80.39;98654.38;5067894;28;19916;-79
2023/03/19 10:45:16;;;;;;;;;;;;;;;12.41;80.08;98658.66;5084819;28;19925;-78
2023/03/19 10:47:42;;;;;;;;;;;;;;;12.58;80.16;98653.91;5068165;28;19952;-80
2023/03/19 10:50:13;;;;;;;;;;;;;;;12.80;79.21;98649.06;5066164;28;20081;-79
2023/03/19 10:52:41;;;;;;;;;;;;;;;12.91;77.67;98655.25;5068901;28;19935;-80
2023/03/19 10:55:14;;;;;;;;;;;;;;;12.89;78.55;98655.50;5067567;28;20291;-80
2023/03/19 10:57:44;;;;;;;;;;;;;;;12.92;78.90;98659.53;5071912;28;20305;-80
2023/03/19 11:00:16;;;;;;;;;;;;;;;12.92;77.45;98656.84;5066488;28;19924;-79
2023/03/19 11:02:46;;;;;;;;;;;;;;;12.89;77.77;98652.03;5072958;28;19916;-80
2023/03/19 11:05:11;;;;;;;;;;;;;;;12.92;77.78;98659.53;5071257;28;19921;-80
2023/03/19 11:07:37;;;;;;;;;;;;;;;12.97;77.53;98663.03;5074160;28;19927;-80
2023/03/19 11:10:02;;;;;;;;;;;;;;;13.20;77.51;98662.50;5054341;28;20046;-80
2023/03/19 11:12:32;;;;;;;;;;;;;;;13.12;75.93;98657.69;5067724;28;20150;-79
2023/03/19 11:14:59;;;;;;;;;;;;;;;13.43;75.21;98653.88;5068333;28;19952;-79
2023/03/19 11:17:36;;;;;;;;;;;;;;;13.70;75.14;98660.78;5067987;28;19923;-80
2023/03/19 11:20:18;;;;;;;;;;;;;;;13.69;74.93;98659.19;5076843;28;19974;-79
2023/03/19 11:22:43;;;;;;;;;;;;;;;13.75;72.95;98663.47;5074760;28;19916;-80
2023/03/19 11:25:17;;;;;;;;;;;;;;;13.88;71.04;98661.00;5075890;28;19967;-80
2023/03/19 11:27:43;;;;;;;;;;;;;;;13.84;71.39;98662.63;5073166;28;19974;-78
2023/03/19 11:30:18;;;;;;;;;;;;;;;14.05;72.24;98658.78;5073274;28;20300;-79
2023/03/19 11:33:02;;;;;;;;;;;;;;;14.07;71.59;98655.81;5086007;28;19951;-78
2023/03/19 11:35:37;;;;;;;;;;;;;;;14.00;67.86;98655.34;5071104;28;19955;-79
2023/03/19 11:38:03;;;;;;;;;;;;;;;14.18;67.67;98660.06;5071927;28;19974;-79
2023/03/19 11:40:49;;;;;;;;;;;;;;;14.30;67.21;98655.22;5068638;28;20300;-80
2023/03/19 11:43:14;;;;;;;;;;;;;;;14.22;67.09;98647.69;5067714;28;19924;-78
2023/03/19 11:45:39;;;;;;;;;;;;;;;14.18;67.57;98646.63;5072211;28;19923;-80
2023/03/19 11:48:23;;;;;;;;;;;;;;;13.97;66.79;98651.31;5069703;28;19916;-78
2023/03/19 11:50:49;;;;;;;;;;;;;;;14.13;67.21;98644.78;5069106;28;19945;-81
2023/03/19 11:53:44;;;;;;;;;;;;;;;14.26;67.43;98638.03;5067286;28;19916;-81
2023/03/19 11:56:48;;;;;;;;;;;;;;;14.46;66.71;98626.38;5013527;28;20622;-81
2023/03/19 11:59:16;;;;;;;;;;;;;;;14.48;66.06;98630.38;5028398;28;19932;-79
2023/03/19 12:01:44;;;;;;;;;;;;;;;14.66;65.21;98631.59;5009833;28;20078;-80
2023/03/19 12:04:16;;;;;;;;;;;;;;;14.82;64.80;98631.22;5037674;28;19916;-81
2023/03/19 12:06:47;;;;;;;;;;;;;;;14.99;64.12;98623.56;5072619;28;19917;-81
2023/03/19 12:09:28;;;;;;;;;;;;;;;15.02;65.02;98627.56;5078887;28;20360;-80
2023/03/19 12:12:10;;;;;;;;;;;;;;;14.88;64.22;98619.34;5073882;28;19932;-81
2023/03/19 12:14:48;;;;;;;;;;;;;;;14.91;65.30;98628.72;5068987;28;19921;-82
2023/03/19 12:17:28;;;;;;;;;;;;;;;14.68;64.60;98630.25;5070218;28;19995;-80
2023/03/19 12:20:03;;;;;;;;;;;;;;;14.56;64.59;98629.00;5070585;28;20323;-81
2023/03/19 12:22:47;;;;;;;;;;;;;;;14.47;64.89;98620.72;5069895;28;20367;-80
2023/03/19 12:25:31;;;;;;;;;;;;;;;14.62;65.78;98626.00;5070087;28;19984;-81
2023/03/19 12:28:06;;;;;;;;;;;;;;;14.48;64.75;98627.69;5071612;28;19920;-82
2023/03/19 12:30:40;;;;;;;;;;;;;;;14.42;65.18;98625.31;5065480;28;19924;-80
2023/03/19 12:33:29;;;;;;;;;;;;;;;14.57;66.01;98625.25;5070791;28;19916;-81
2023/03/19 12:35:55;;;;;;;;;;;;;;;14.80;65.71;98617.28;5066526;28;20016;-80
2023/03/19 12:38:24;;;;;;;;;;;;;;;15.07;65.34;98613.28;5073550;28;19956;-81
2023/03/19 12:40:52;;;;;;;;;;;;;;;14.93;65.61;98615.81;5069518;28;20028;-80
2023/03/19 12:43:22;;;;;;;;;;;;;;;14.71;65.07;98616.25;5082931;28;19916;-81
2023/03/19 12:45:51;;;;;;;;;;;;;;;14.79;65.26;98609.47;5069668;28;19916;-82
2023/03/19 12:48:23;;;;;;;;;;;;;;;14.69;65.64;98607.69;5066546;28;19924;-82
2023/03/19 12:50:51;;;;;;;;;;;;;;;14.88;64.89;98605.91;5067229;28;19923;-82
2023/03/19 12:53:35;;;;;;;;;;;;;;;15.11;64.36;98600.88;5067899;28;19925;-82